createdAt,value
2018-09-09T00:03:14.407Z,52.4
2018-09-09T00:08:13.361Z,52.7
2018-09-09T00:13:12.321Z,52.6
2018-09-09T00:18:11.011Z,52.5
2018-09-09T00:23:09.802Z,52.6
2018-09-09T00:28:08.566Z,52.6
2018-09-09T00:33:07.387Z,52.6
2018-09-09T00:38:05.976Z,52.6
2018-09-09T00:43:04.794Z,52.6
2018-09-09T00:48:03.532Z,52.6
2018-09-09T00:53:02.323Z,52.6
2018-09-09T00:58:01.236Z,52.6
2018-09-09T01:02:59.901Z,52.6
2018-09-09T01:07:58.633Z,52.6
2018-09-09T01:12:57.453Z,52.6
2018-09-09T01:17:56.294Z,52.5
2018-09-09T01:22:55.048Z,52.6
2018-09-09T01:27:53.750Z,52.5
2018-09-09T01:32:52.444Z,52.4
2018-09-09T01:37:51.310Z,52.4
2018-09-09T01:42:50.143Z,52.4
2018-09-09T01:47:48.518Z,52.4
2018-09-09T01:52:47.308Z,52.4
2018-09-09T01:57:46.107Z,52.3
2018-09-09T02:02:44.771Z,52.4
2018-09-09T02:07:43.571Z,52.4
2018-09-09T02:12:42.370Z,52.5
2018-09-09T02:17:41.060Z,52.7
2018-09-09T02:22:39.757Z,52.7
2018-09-09T02:27:38.528Z,52.6
2018-09-09T02:32:37.201Z,52.7
2018-09-09T02:37:35.989Z,52.6
2018-09-09T02:42:34.292Z,52.6
2018-09-09T02:47:33.146Z,52.5
2018-09-09T02:52:31.859Z,52.5
2018-09-09T02:57:30.893Z,52.5
2018-09-09T03:02:29.659Z,52.4
2018-09-09T03:07:28.265Z,52.4
2018-09-09T03:12:26.806Z,52.4
2018-09-09T03:17:25.465Z,52.4
2018-09-09T03:22:24.268Z,52.4
2018-09-09T03:27:22.885Z,52.4
2018-09-09T03:32:21.752Z,52.4
2018-09-09T03:37:20.521Z,52.4
2018-09-09T03:42:19.317Z,52.4
2018-09-09T03:47:17.773Z,52.4
2018-09-09T03:52:16.077Z,52.4
2018-09-09T03:57:14.870Z,52.3
2018-09-09T04:02:13.459Z,52.3
2018-09-09T04:07:12.448Z,52.3
2018-09-09T04:12:11.511Z,52.4
2018-09-09T04:17:10.038Z,52.4
2018-09-09T04:22:08.345Z,52.6
2018-09-09T04:27:07.048Z,52.6
2018-09-09T04:32:05.934Z,52.5
2018-09-09T04:37:04.680Z,52.4
2018-09-09T04:42:03.618Z,52.4
2018-09-09T04:47:02.451Z,52.4
2018-09-09T04:52:00.633Z,52.4
2018-09-09T04:56:59.322Z,52.4
2018-09-09T05:01:57.998Z,52.4
2018-09-09T05:06:57.089Z,52.4
2018-09-09T05:11:56.011Z,52.4
2018-09-09T05:16:54.888Z,52.4
2018-09-09T05:21:53.492Z,52.4
2018-09-09T05:26:52.361Z,52.4
2018-09-09T05:31:51.023Z,52.4
2018-09-09T05:36:49.687Z,52.7
2018-09-09T05:41:48.706Z,52.8
2018-09-09T05:46:47.371Z,52.9
2018-09-09T05:51:45.729Z,52.9
2018-09-09T05:56:44.485Z,52.9
2018-09-09T06:01:43.416Z,52.7
2018-09-09T06:06:42.420Z,52.6
2018-09-09T06:11:41.253Z,52.6
2018-09-09T06:16:39.483Z,52.5
2018-09-09T06:21:38.453Z,53.1
2018-09-09T06:26:38.081Z,53.7
2018-09-09T06:31:37.057Z,54.3
2018-09-09T06:36:36.137Z,54.9
2018-09-09T06:41:36.041Z,54.6
2018-09-09T06:46:35.053Z,54.3
2018-09-09T06:51:34.277Z,54.3
2018-09-09T06:56:33.090Z,54.2
2018-09-09T07:01:32.018Z,54.1
2018-09-09T07:06:30.933Z,54.2
2018-09-09T07:11:30.189Z,54.3
2018-09-09T07:16:29.071Z,54.4
2018-09-09T07:21:27.863Z,54.3
2018-09-09T07:26:26.670Z,54.2
2018-09-09T07:31:25.638Z,54.2
2018-09-09T07:36:24.389Z,54.1
2018-09-09T07:41:23.298Z,54
2018-09-09T07:46:22.649Z,54
2018-09-09T07:51:21.501Z,54
2018-09-09T07:56:20.259Z,54
2018-09-09T08:01:19.182Z,54
2018-09-09T08:06:18.406Z,54
2018-09-09T08:11:17.277Z,54.1
2018-09-09T08:16:16.568Z,54.1
2018-09-09T08:21:15.784Z,54.1
2018-09-09T08:26:14.834Z,54.2
2018-09-09T08:31:14.218Z,54
2018-09-09T08:36:13.153Z,53.8
2018-09-09T08:41:12.179Z,53.5
2018-09-09T08:46:11.570Z,53.4
2018-09-09T08:51:11.395Z,53.3
2018-09-09T08:56:10.273Z,53.2
2018-09-09T09:01:09.358Z,53.1
2018-09-09T09:06:08.481Z,53
2018-09-09T09:11:07.443Z,52.7
2018-09-09T09:16:06.459Z,52.4
2018-09-09T09:21:05.558Z,52.3
2018-09-09T09:26:04.736Z,52.2
2018-09-09T09:31:04.481Z,52.3
2018-09-09T09:36:03.701Z,52.2
2018-09-09T09:41:02.398Z,51.9
2018-09-09T09:46:01.469Z,51.3
2018-09-09T09:50:59.996Z,51.4
2018-09-09T09:55:58.680Z,51.4
2018-09-09T10:00:58.267Z,52.1
2018-09-09T10:05:57.620Z,52.2
2018-09-09T10:10:56.356Z,52
2018-09-09T10:15:55.256Z,52
2018-09-09T10:20:54.165Z,51.7
2018-09-09T10:25:53.104Z,51.6
2018-09-09T10:30:52.045Z,51.9
2018-09-09T10:35:51.347Z,52.2
2018-09-09T10:40:50.404Z,53
2018-09-09T10:45:49.715Z,54
2018-09-09T10:50:48.562Z,54.6
2018-09-09T10:55:47.768Z,53.7
2018-09-09T11:00:47.005Z,53
2018-09-09T11:05:46.132Z,52.9
2018-09-09T11:10:46.152Z,52.7
2018-09-09T11:15:45.310Z,52.7
2018-09-09T11:20:44.364Z,52.3
2018-09-09T11:25:43.366Z,52.2
2018-09-09T11:30:42.536Z,51.8
2018-09-09T11:35:41.753Z,51.6
2018-09-09T11:40:40.998Z,51.4
2018-09-09T11:45:39.743Z,51.5
2018-09-09T11:50:38.590Z,51.5
2018-09-09T11:55:37.882Z,51.4
2018-09-09T12:00:36.993Z,51.4
2018-09-09T12:05:35.817Z,51.3
2018-09-09T12:10:34.703Z,51.1
2018-09-09T12:15:33.703Z,50.7
2018-09-09T12:20:32.597Z,50.5
2018-09-09T12:25:31.751Z,50
2018-09-09T12:30:31.152Z,50
2018-09-09T12:35:30.227Z,49.9
2018-09-09T12:40:29.687Z,49.7
2018-09-09T12:45:28.766Z,49.4
2018-09-09T12:50:27.911Z,49.2
2018-09-09T12:55:27.496Z,49.1
2018-09-09T13:00:26.851Z,49.1
2018-09-09T13:05:25.961Z,48.9
2018-09-09T13:10:24.346Z,48.9
2018-09-09T13:15:23.130Z,48.7
2018-09-09T13:20:23.360Z,48.6
2018-09-09T13:25:22.235Z,48.6
2018-09-09T13:30:21.273Z,49
2018-09-09T13:35:20.245Z,48.8
2018-09-09T13:40:19.128Z,48.8
2018-09-09T13:45:18.091Z,48.6
2018-09-09T13:50:17.045Z,48.3
2018-09-09T13:55:15.341Z,48.2
2018-09-09T14:00:13.856Z,48.3
2018-09-09T14:05:13.130Z,48.3
2018-09-09T14:10:12.000Z,48.3
2018-09-09T14:15:11.025Z,48
2018-09-09T14:20:10.463Z,47.7
2018-09-09T14:25:09.361Z,47.5
2018-09-09T14:30:09.445Z,47.4
2018-09-09T14:35:08.155Z,47.2
2018-09-09T14:40:07.242Z,46.9
2018-09-09T14:45:08.184Z,46.7
2018-09-09T14:50:07.501Z,46.6
2018-09-09T14:55:06.977Z,46.5
2018-09-09T15:00:06.029Z,46.3
2018-09-09T15:05:04.939Z,45.6
2018-09-09T15:10:03.819Z,45.4
2018-09-09T15:15:02.943Z,45
2018-09-09T15:20:01.938Z,44.8
2018-09-09T15:25:00.559Z,44.8
2018-09-09T15:29:59.448Z,44.9
2018-09-09T15:34:58.574Z,45.4
2018-09-09T15:39:57.518Z,45.6
2018-09-09T15:44:56.578Z,45.7
2018-09-09T15:49:56.136Z,46.2
2018-09-09T15:54:54.799Z,45.7
2018-09-09T15:59:53.037Z,45.9
2018-09-09T16:04:51.319Z,46
2018-09-09T16:09:50.416Z,46
2018-09-09T16:14:49.659Z,46
2018-09-09T16:19:48.842Z,46.1
2018-09-09T16:24:47.838Z,46.2
2018-09-09T16:29:46.985Z,46.3
2018-09-09T16:34:45.581Z,46.4
2018-09-09T16:39:44.928Z,46.5
2018-09-09T16:44:43.998Z,46.7
2018-09-09T16:49:42.961Z,46.8
2018-09-09T16:54:41.904Z,46.9
2018-09-09T16:59:40.804Z,46.8
2018-09-09T17:04:39.815Z,46.8
2018-09-09T17:09:38.917Z,46.9
2018-09-09T17:14:37.928Z,46.9
2018-09-09T17:19:36.808Z,46.9
2018-09-09T17:24:35.648Z,47
2018-09-09T17:29:34.636Z,47
2018-09-09T17:34:33.615Z,47.1
2018-09-09T17:39:32.790Z,47.2
2018-09-09T17:44:31.421Z,47.3
2018-09-09T17:49:30.306Z,47.4
2018-09-09T17:54:29.166Z,47.4
2018-09-09T17:59:27.717Z,47.4
2018-09-09T18:04:26.203Z,47.3
2018-09-09T18:09:25.166Z,47.4
2018-09-09T18:14:24.064Z,47.4
2018-09-09T18:19:23.066Z,47.4
2018-09-09T18:24:21.774Z,47.4
2018-09-09T18:29:20.599Z,47.5
2018-09-09T18:34:19.761Z,47.6
2018-09-09T18:39:18.562Z,47.6
2018-09-09T18:44:17.365Z,47.7
2018-09-09T18:49:16.142Z,47.7
2018-09-09T18:54:14.976Z,47.7
2018-09-09T18:59:14.058Z,47.7
2018-09-09T19:04:12.850Z,47.7
2018-09-09T19:09:11.294Z,47.8
2018-09-09T19:14:10.372Z,47.8
2018-09-09T19:19:09.187Z,47.8
2018-09-09T19:24:07.752Z,47.9
2018-09-09T19:29:06.395Z,47.8
2018-09-09T19:34:04.803Z,47.8
2018-09-09T19:39:03.769Z,47.8
2018-09-09T19:44:02.737Z,47.8
2018-09-09T19:49:01.475Z,47.9
2018-09-09T19:54:00.552Z,47.9
2018-09-09T19:58:59.313Z,47.9
2018-09-09T20:03:58.240Z,48
2018-09-09T20:08:57.200Z,48
2018-09-09T20:13:56.060Z,48
2018-09-09T20:18:54.475Z,48
2018-09-09T20:23:53.253Z,48
2018-09-09T20:28:51.709Z,47.9
2018-09-09T20:33:50.374Z,47.9
2018-09-09T20:38:48.998Z,47.9
2018-09-09T20:43:47.863Z,48
2018-09-09T20:48:46.610Z,48
2018-09-09T20:53:45.602Z,48.1
2018-09-09T20:58:44.443Z,48.1
2018-09-09T21:03:43.193Z,48.1
2018-09-09T21:08:42.011Z,48.1
2018-09-09T21:13:40.662Z,48.1
2018-09-09T21:18:39.171Z,48.1
2018-09-09T21:23:37.601Z,48.1
2018-09-09T21:28:36.180Z,48
2018-09-09T21:33:34.968Z,48
2018-09-09T21:38:33.584Z,48.1
2018-09-09T21:43:32.498Z,48.1
2018-09-09T21:48:31.555Z,48.2
2018-09-09T21:53:30.506Z,48.2
2018-09-09T21:58:29.387Z,48.2
2018-09-09T22:03:28.158Z,48.2
2018-09-09T22:08:27.100Z,48.2
2018-09-09T22:13:25.891Z,48.2
2018-09-09T22:18:24.297Z,48.2
2018-09-09T22:23:23.022Z,48.1
2018-09-09T22:28:21.933Z,48.1
2018-09-09T22:33:20.769Z,48.1
2018-09-09T22:38:19.255Z,48.2
2018-09-09T22:43:18.285Z,48.2
2018-09-09T22:48:16.897Z,48.3
2018-09-09T22:53:15.699Z,48.3
2018-09-09T22:58:14.330Z,48.3
2018-09-09T23:03:13.286Z,48.3
2018-09-09T23:08:11.998Z,48.3
2018-09-09T23:13:10.678Z,48.3
2018-09-09T23:18:09.481Z,48.3
2018-09-09T23:23:08.313Z,48.2
2018-09-09T23:28:07.229Z,48.2
2018-09-09T23:33:05.795Z,48.3
2018-09-09T23:38:04.535Z,48.3
2018-09-09T23:43:03.240Z,48.3
2018-09-09T23:48:01.899Z,48.4
2018-09-09T23:53:00.799Z,48.4
2018-09-09T23:57:59.036Z,48.4
